createdAt,value
2019-01-02T00:07:42.585Z,21.4
2019-01-02T00:17:41.793Z,21.4
2019-01-02T00:27:40.999Z,21.4
2019-01-02T00:37:40.206Z,21.4
2019-01-02T00:47:39.404Z,21.4
2019-01-02T00:57:38.613Z,21.4
2019-01-02T01:07:37.816Z,21.3
2019-01-02T01:17:37.018Z,21.3
2019-01-02T01:27:36.228Z,21.3
2019-01-02T01:37:35.425Z,21.3
2019-01-02T01:47:34.639Z,21.3
2019-01-02T01:57:33.840Z,21.3
2019-01-02T02:07:33.039Z,21.3
2019-01-02T02:17:32.244Z,21.3
2019-01-02T02:27:31.451Z,21.3
2019-01-02T02:37:30.653Z,21.3
2019-01-02T02:47:29.859Z,21.2
2019-01-02T02:57:29.057Z,21.2
2019-01-02T03:07:28.268Z,21.2
2019-01-02T03:17:27.467Z,21.2
2019-01-02T03:27:26.667Z,21.2
2019-01-02T03:37:25.881Z,21.2
2019-01-02T03:47:25.086Z,21.2
2019-01-02T03:57:24.279Z,21.2
2019-01-02T04:07:23.489Z,21.2
2019-01-02T04:17:22.690Z,21.2
2019-01-02T04:27:21.887Z,21.2
2019-01-02T04:37:21.090Z,21.1
2019-01-02T04:47:20.301Z,21.1
2019-01-02T04:57:19.501Z,21.2
2019-01-02T05:07:18.706Z,21.3
2019-01-02T05:17:17.910Z,21.4
2019-01-02T05:27:17.106Z,21.6
2019-01-02T05:37:16.312Z,21.6
2019-01-02T05:47:15.522Z,21.5
2019-01-02T05:57:14.725Z,21.4
2019-01-02T06:07:13.929Z,21.5
2019-01-02T06:17:13.134Z,21.8
2019-01-02T06:27:12.348Z,21.8
2019-01-02T06:37:11.549Z,21.8
2019-01-02T06:47:10.754Z,22
2019-01-02T06:57:09.958Z,22.2
2019-01-02T07:07:09.172Z,22.3
2019-01-02T07:17:08.374Z,22.3
2019-01-02T07:27:07.571Z,22.3
2019-01-02T07:37:06.773Z,22.4
2019-01-02T07:47:05.974Z,22.4
2019-01-02T07:57:05.181Z,22.5
2019-01-02T08:07:04.385Z,22.6
2019-01-02T08:17:03.593Z,22.4
2019-01-02T08:27:02.799Z,22.2
2019-01-02T08:37:01.995Z,22.3
2019-01-02T08:47:01.197Z,22.3
2019-01-02T08:57:00.402Z,22.3
2019-01-02T09:06:59.608Z,22.2
2019-01-02T09:16:58.806Z,22.3
2019-01-02T09:26:58.014Z,22.3
2019-01-02T09:36:57.215Z,22.4
2019-01-02T09:46:56.421Z,22.5
2019-01-02T09:56:55.617Z,22.6
2019-01-02T10:06:54.821Z,22.6
2019-01-02T10:16:54.024Z,22.4
2019-01-02T10:26:53.226Z,22.3
2019-01-02T10:36:52.421Z,22.4
2019-01-02T10:46:51.626Z,22.5
2019-01-02T10:56:50.830Z,22.6
2019-01-02T11:06:50.035Z,22.7
2019-01-02T11:16:49.242Z,22.5
2019-01-02T11:26:48.445Z,22.4
2019-01-02T11:36:47.659Z,22.5
2019-01-02T11:46:46.863Z,22.6
2019-01-02T11:56:46.058Z,22.7
2019-01-02T12:06:45.262Z,22.8
2019-01-02T12:16:44.465Z,22.6
2019-01-02T12:26:43.665Z,22.3
2019-01-02T12:36:42.866Z,22.4
2019-01-02T12:46:42.071Z,22.6
2019-01-02T12:56:41.272Z,22.7
2019-01-02T13:06:40.472Z,22.6
2019-01-02T13:16:39.676Z,22.4
2019-01-02T13:26:38.884Z,22.6
2019-01-02T13:36:38.074Z,22.7
2019-01-02T13:46:37.281Z,22.7
2019-01-02T13:56:36.484Z,22.6
2019-01-02T14:06:35.688Z,22.5
2019-01-02T14:16:34.884Z,22.4
2019-01-02T14:26:34.086Z,22.4
2019-01-02T14:36:33.288Z,22.4
2019-01-02T14:46:32.487Z,22.4
2019-01-02T14:56:31.689Z,22.4
2019-01-02T15:06:30.883Z,22.2
2019-01-02T15:16:30.092Z,22
2019-01-02T15:26:29.294Z,22.2
2019-01-02T15:36:28.487Z,22.4
2019-01-02T15:46:27.689Z,22.5
2019-01-02T15:56:26.898Z,22.6
2019-01-02T16:06:26.092Z,22.7
2019-01-02T16:16:25.295Z,22.7
